Latest Weather Observations for Sydney Harbour

IDN60901

Issued at 10:51 am EST Tuesday 18 June 2019 (issued every 10 minutes, with the page automatically refreshed every 10 minutes)

About weather observations | Map of Sydney area stations | Latest observations for Sydney area | Other Formats
Station Details ID: 066196 Name: WEDDING CAKE WEST Lat: -33.84 Lon: 151.26 Height: 6.0 m
Data from the previous 72 hours. | See also: Recent months at Sydney Harbour
Date/Time
EST
Temp
°C
App
Temp
°C
Dew
Point
°C
Rel
Hum
%
Delta-T
°C
Wind Press
QNH
hPa
Press
MSL
hPa
Rain since
9am
mm
Dir  Spd
km/h
Gust
km/h
Spd
kts
Gust
kts
18/10:30am 14.7 - - - - WSW 22 26 12 14 - - -
18/10:00am 13.6 - - - - WSW 24 33 13 18 - - -
18/09:30am 13.3 - - - - W 28 33 15 18 - - -
18/09:00am 12.8 - - - - W 24 30 13 16 - - -
18/08:30am 12.5 - - - - WSW 11 15 6 8 - - -
18/08:00am 12.5 - - - - NW 9 15 5 8 - - -
18/07:30am 13.1 - - - - N 17 20 9 11 - - -
18/07:00am 13.3 - - - - W 17 20 9 11 - - -
18/06:30am 13.5 - - - - W 15 20 8 11 - - -
18/06:00am 13.1 - - - - WSW 20 24 11 13 - - -
18/05:30am 13.2 - - - - W 24 28 13 15 - - -
18/05:00am 13.3 - - - - W 22 28 12 15 - - -
18/04:30am 13.4 - - - - WSW 22 28 12 15 - - -
18/04:00am 13.4 - - - - WSW 22 28 12 15 - - -
18/03:30am 13.2 - - - - W 26 30 14 16 - - -
18/03:00am 13.3 - - - - W 26 32 14 17 - - -
18/02:30am 13.4 - - - - W 28 33 15 18 - - -
18/02:00am 13.4 - - - - W 20 30 11 16 - - -
18/01:30am 13.4 - - - - WSW 24 30 13 16 - - -
18/01:00am 13.2 - - - - W 22 28 12 15 - - -
18/12:30am 13.4 - - - - WSW 24 30 13 16 - - -
18/12:00am 13.9 - - - - W 26 32 14 17 - - -
 
Date/Time
EST
Temp
°C
App
Temp
°C
Dew
Point
°C
Rel
Hum
%
Delta-T
°C
Wind Press
QNH
hPa
Press
MSL
hPa
Rain since
9am
mm
Dir  Spd
km/h
Gust
km/h
Spd
kts
Gust
kts
17/11:30pm 14.0 - - - - WSW 24 30 13 16 - - -
17/11:00pm 13.7 - - - - W 26 32 14 17 - - -
17/10:30pm 13.9 - - - - W 30 35 16 19 - - -
17/10:00pm 14.1 - - - - W 24 32 13 17 - - -
17/09:30pm 14.1 - - - - W 26 32 14 17 - - -
17/09:00pm 14.4 - - - - WSW 15 28 8 15 - - -
17/08:30pm 15.4 - - - - SW 26 32 14 17 - - -
17/08:00pm 15.7 - - - - SSW 26 32 14 17 - - -
17/07:30pm 15.3 - - - - SW 26 30 14 16 - - -
17/07:00pm 15.6 - - - - SW 30 35 16 19 - - -
17/06:30pm 15.4 - - - - SW 30 37 16 20 - - -
17/06:00pm 15.4 - - - - SW 33 41 18 22 - - -
17/05:30pm 15.2 - - - - SW 37 46 20 25 - - -
17/05:00pm 15.1 - - - - SW 37 46 20 25 - - -
17/04:30pm 15.4 - - - - SW 33 41 18 22 - - -
17/04:00pm 15.6 - - - - SW 37 46 20 25 - - -
17/03:30pm 15.6 - - - - SW 33 41 18 22 - - -
17/03:00pm 15.1 - - - - WSW 30 43 16 23 - - -
17/02:56pm 14.6 - - - - WSW 32 43 17 23 - - -
17/02:30pm 15.2 - - - - SW 37 46 20 25 - - -
17/02:00pm 15.0 - - - - SSW 39 48 21 26 - - -
17/01:30pm 14.9 - - - - SSW 33 39 18 21 - - -
17/01:00pm 14.8 - - - - SW 24 28 13 15 - - -
17/12:30pm 14.3 - - - - SSW 22 28 12 15 - - -
17/12:00pm 13.7 - - - - S 17 26 9 14 - - -
17/11:30am 14.2 - - - - ESE 26 35 14 19 - - -
17/11:23am 13.9 - - - - ESE 19 35 10 19 - - -
17/11:00am 13.7 - - - - NW 13 17 7 9 - - -
17/10:30am 13.2 - - - - WSW 9 17 5 9 - - -
17/10:00am 13.0 - - - - WSW 24 37 13 20 - - -
17/09:30am 13.1 - - - - WSW 24 28 13 15 - - -
17/09:00am 13.1 - - - - WSW 28 37 15 20 - - -
17/08:30am 12.8 - - - - WSW 26 33 14 18 - - -
17/08:00am 12.7 - - - - W 26 32 14 17 - - -
17/07:30am 12.7 - - - - W 28 33 15 18 - - -
17/07:00am 11.9 - - - - WSW 22 26 12 14 - - -
17/06:30am 12.3 - - - - W 24 30 13 16 - - -
17/06:00am 12.8 - - - - WSW 24 32 13 17 - - -
17/05:30am 13.2 - - - - W 24 30 13 16 - - -
17/05:00am 13.1 - - - - WSW 22 28 12 15 - - -
17/04:30am 13.2 - - - - WSW 24 33 13 18 - - -
17/04:00am 13.2 - - - - WSW 20 26 11 14 - - -
17/03:30am 13.3 - - - - W 24 32 13 17 - - -
17/03:00am 14.4 - - - - SW 32 37 17 20 - - -
17/02:30am 13.3 - - - - W 20 26 11 14 - - -
17/02:00am 13.2 - - - - WSW 19 26 10 14 - - -
17/01:30am 13.2 - - - - WSW 20 28 11 15 - - -
17/01:00am 13.0 - - - - W 24 30 13 16 - - -
17/12:30am 13.4 - - - - WSW 20 26 11 14 - - -
17/12:00am 14.0 - - - - WSW 20 28 11 15 - - -
 
Date/Time
EST
Temp
°C
App
Temp
°C
Dew
Point
°C
Rel
Hum
%
Delta-T
°C
Wind Press
QNH
hPa
Press
MSL
hPa
Rain since
9am
mm
Dir  Spd
km/h
Gust
km/h
Spd
kts
Gust
kts
16/11:30pm 13.7 - - - - WSW 19 24 10 13 - - -
16/11:00pm 13.6 - - - - W 20 26 11 14 - - -
16/10:30pm 13.7 - - - - WSW 19 28 10 15 - - -
16/10:00pm 13.9 - - - - WSW 19 24 10 13 - - -
16/09:30pm 14.3 - - - - WSW 26 35 14 19 - - -
16/09:00pm 14.5 - - - - WSW 17 24 9 13 - - -
16/08:30pm 13.6 - - - - WSW 22 28 12 15 - - -
16/08:00pm 13.9 - - - - W 22 32 12 17 - - -
16/07:30pm 13.9 - - - - W 19 24 10 13 - - -
16/07:00pm 14.3 - - - - W 22 26 12 14 - - -
16/06:30pm 14.8 - - - - W 20 22 11 12 - - -
16/06:00pm 15.9 - - - - W 13 17 7 9 - - -
16/05:30pm 16.5 - - - - S 11 15 6 8 - - -
16/05:00pm 16.2 - - - - S 13 17 7 9 - - -
16/04:30pm 15.9 - - - - SW 13 17 7 9 - - -
16/04:00pm 15.9 - - - - SSW 15 19 8 10 - - -
16/03:30pm 15.5 - - - - S 11 15 6 8 - - -
16/03:00pm 15.2 - - - - SSW 15 20 8 11 - - -
16/02:30pm 14.8 - - - - SSW 20 26 11 14 - - -
16/02:00pm 15.4 - - - - SW 9 11 5 6 - - -
16/01:30pm 15.1 - - - - SSW 11 13 6 7 - - -
16/01:00pm 14.9 - - - - S 15 19 8 10 - - -
16/12:30pm 14.9 - - - - SSW 13 17 7 9 - - -
16/12:00pm 14.8 - - - - SW 7 11 4 6 - - -
16/11:30am 14.7 - - - - WSW 7 9 4 5 - - -
16/11:00am 14.3 - - - - WSW 11 15 6 8 - - -
16/10:30am 14.2 - - - - NW 9 13 5 7 - - -
16/10:00am 14.9 - - - - N 19 28 10 15 - - -
16/09:30am 15.2 - - - - S 9 11 5 6 - - -
16/09:00am 13.9 - - - - W 15 20 8 11 - - -
16/08:30am 13.5 - - - - WSW 22 26 12 14 - - -
16/08:00am 13.3 - - - - WSW 20 28 11 15 - - -
16/07:30am 13.5 - - - - WSW 19 24 10 13 - - -
16/07:00am 13.2 - - - - WSW 17 20 9 11 - - -
16/06:30am 12.7 - - - - WSW 20 22 11 12 - - -
16/06:00am 12.9 - - - - W 19 24 10 13 - - -
16/05:30am 12.9 - - - - W 15 19 8 10 - - -
16/05:00am 13.1 - - - - W 17 20 9 11 - - -
16/04:30am 12.3 - - - - W 11 15 6 8 - - -
16/04:00am 12.7 - - - - W 20 24 11 13 - - -
16/03:30am 13.1 - - - - SW 20 26 11 14 - - -
16/03:00am 12.8 - - - - WSW 22 28 12 15 - - -
16/02:30am 13.2 - - - - W 20 26 11 14 - - -
16/02:00am 13.7 - - - - WSW 17 20 9 11 - - -
16/01:30am 13.8 - - - - SW 17 20 9 11 - - -
16/01:00am 13.7 - - - - SSW 17 26 9 14 - - -
16/12:30am 14.1 - - - - WSW 19 26 10 14 - - -
16/12:00am 14.3 - - - - SW 24 30 13 16 - - -
 
Date/Time
EST
Temp
°C
App
Temp
°C
Dew
Point
°C
Rel
Hum
%
Delta-T
°C
Wind Press
QNH
hPa
Press
MSL
hPa
Rain since
9am
mm
Dir  Spd
km/h
Gust
km/h
Spd
kts
Gust
kts
15/11:30pm 14.4 - - - - SW 22 26 12 14 - - -
15/11:00pm 15.4 - - - - SSW 19 24 10 13 - - -
15/10:30pm 15.1 - - - - SSW 19 24 10 13 - - -
15/10:00pm 15.0 - - - - SSW 20 24 11 13 - - -
15/09:30pm 15.3 - - - - SW 17 20 9 11 - - -
15/09:00pm 15.8 - - - - SSW 26 32 14 17 - - -
15/08:30pm 15.3 - - - - WSW 13 19 7 10 - - -
15/08:00pm 15.2 - - - - WSW 11 15 6 8 - - -
15/07:30pm 15.0 - - - - W 13 17 7 9 - - -
15/07:00pm 14.6 - - - - WSW 17 19 9 10 - - -
15/06:30pm 15.0 - - - - S 11 13 6 7 - - -
15/06:00pm 15.7 - - - - SSE 26 35 14 19 - - -
15/05:30pm 17.3 - - - - SSW 11 15 6 8 - - -
15/05:00pm 17.5 - - - - SSW 13 17 7 9 - - -
15/04:30pm 17.6 - - - - SW 13 17 7 9 - - -
15/04:00pm 17.8 - - - - SSW 15 19 8 10 - - -
15/03:30pm 17.9 - - - - S 15 20 8 11 - - -
15/03:00pm 18.6 - - - - CALM 0 0 0 0 - - -
15/02:30pm 18.3 - - - - CALM 0 0 0 0 - - -
15/02:00pm 17.8 - - - - WSW 9 11 5 6 - - -
15/01:30pm 17.7 - - - - W 7 11 4 6 - - -
15/01:00pm 17.2 - - - - WSW 9 13 5 7 - - -
15/12:30pm 16.4 - - - - W 13 17 7 9 - - -
15/12:00pm 15.8 - - - - W 15 20 8 11 - - -
15/11:30am 15.0 - - - - W 19 22 10 12 - - -
15/11:00am 14.6 - - - - WSW 17 22 9 12 - - -

Latest Capital City Observations: Canberra | Sydney | Melbourne | Brisbane | Adelaide | Perth | Hobart | Darwin

Other formats

Comma delimited format used in spreadsheet applications
http://www.bom.gov.au/fwo/IDN60901/IDN60901.95766.axf

JavaScript Object Notation format (JSON) in row-major order
http://www.bom.gov.au/fwo/IDN60901/IDN60901.95766.json

Data quality

Most of these data are generated automatically and are frequently updated. Quality checks on data are not normally performed. It is possible for incorrect values to appear. Refer to information at About Latest Weather Observations and please check the disclaimer before using these data.